Time;durP1;ratioP1;P1;durP2;ratioP2;P2;SDS_P1;SDS_P2;PMS_P1;PMS_P2;Temp;Humidity;BMP_temperature;BMP_pressure;BME280_temperature;BME280_humidity;BME280_pressure;Samples;Min_cycle;Max_cycle;Signal;HPM_P1;HPM_P2
2023/03/12 00:02:31;;;;;;;0.50;0.47;;;;;;;2.78;71.16;99188.69;6243511;28;20068;-75
2023/03/12 00:05:32;;;;;;;0.45;0.45;;;;;;;2.75;71.53;99187.09;6225574;28;20496;-75
2023/03/12 00:08:33;;;;;;;1.05;0.85;;;;;;;2.81;71.61;99196.31;6243787;28;20491;-75
2023/03/12 00:11:34;;;;;;;0.47;0.43;;;;;;;2.77;71.33;99203.31;6225738;28;20045;-75
2023/03/12 00:14:37;;;;;;;0.63;0.60;;;;;;;2.67;70.45;99204.63;6225720;28;20548;-70
2023/03/12 00:17:38;;;;;;;1.33;0.77;;;;;;;2.82;69.87;99209.13;6242817;28;20448;-70
2023/03/12 00:20:39;;;;;;;0.50;0.50;;;;;;;2.77;69.15;99217.97;6224782;28;20041;-70
2023/03/12 00:23:39;;;;;;;0.57;0.57;;;;;;;2.82;70.08;99223.72;6242705;28;20431;-75
2023/03/12 00:26:40;;;;;;;3.53;0.95;;;;;;;2.85;69.10;99233.09;6225205;28;20053;-73
2023/03/12 00:29:41;;;;;;;1.65;1.30;;;;;;;2.73;69.78;99235.28;6242958;28;20042;-75
2023/03/12 00:32:42;;;;;;;0.95;0.65;;;;;;;2.79;68.21;99250.47;6243283;28;20056;-75
2023/03/12 00:35:43;;;;;;;0.70;0.70;;;;;;;2.74;68.60;99254.13;6243508;28;20049;-75
2023/03/12 00:38:44;;;;;;;3.90;1.10;;;;;;;2.60;66.72;99250.41;6243407;28;20097;-75
2023/03/12 00:41:45;;;;;;;0.45;0.30;;;;;;;2.69;66.74;99262.06;6225085;28;20081;-71
2023/03/12 00:44:45;;;;;;;1.45;0.88;;;;;;;2.69;65.74;99261.22;6242088;28;20056;-75
2023/03/12 00:47:46;;;;;;;0.45;0.45;;;;;;;2.46;62.59;99265.59;6225469;28;20439;-75
2023/03/12 00:50:47;;;;;;;0.43;0.43;;;;;;;2.50;63.01;99268.88;6242386;28;20124;-75
2023/03/12 00:53:47;;;;;;;1.00;0.95;;;;;;;2.45;62.85;99276.78;6224856;28;20125;-70
2023/03/12 00:56:48;;;;;;;13.00;0.90;;;;;;;2.39;62.72;99272.72;6224761;28;20038;-75
2023/03/12 00:59:49;;;;;;;0.40;0.40;;;;;;;2.48;61.49;99275.81;6245791;28;20080;-70
2023/03/12 01:02:50;;;;;;;0.60;0.60;;;;;;;2.41;62.50;99283.78;6246513;28;20050;-75
2023/03/12 01:05:54;;;;;;;0.50;0.50;;;;;;;2.44;61.18;99279.44;6246586;28;20143;-75
2023/03/12 01:08:55;;;;;;;0.75;0.30;;;;;;;2.42;60.99;99288.03;6246921;28;20461;-75
2023/03/12 01:11:55;;;;;;;0.40;0.30;;;;;;;2.36;60.18;99285.69;6246766;28;20164;-70
2023/03/12 01:14:56;;;;;;;0.68;0.55;;;;;;;2.31;61.26;99286.81;6228173;28;20104;-70
2023/03/12 01:17:57;;;;;;;0.38;0.38;;;;;;;2.34;60.28;99290.06;6228101;28;20052;-70
2023/03/12 01:20:58;;;;;;;0.43;0.43;;;;;;;2.24;60.98;99295.66;6245748;28;20045;-75
2023/03/12 01:23:59;;;;;;;0.45;0.45;;;;;;;2.11;61.25;99295.28;6228658;28;20042;-75
2023/03/12 01:26:59;;;;;;;0.65;0.60;;;;;;;2.01;59.40;99299.94;6228029;28;20357;-71
2023/03/12 01:30:01;;;;;;;1.00;0.95;;;;;;;2.02;58.54;99304.22;6245541;28;20053;-71
2023/03/12 01:33:02;;;;;;;0.28;0.25;;;;;;;1.90;57.63;99292.63;6245483;28;20144;-70
2023/03/12 01:36:03;;;;;;;0.20;0.20;;;;;;;1.92;58.74;99290.00;6227717;28;20477;-70
2023/03/12 01:39:05;;;;;;;1.95;0.60;;;;;;;2.10;58.36;99299.59;6227887;28;20061;-70
2023/03/12 01:42:06;;;;;;;2.63;0.55;;;;;;;2.02;58.07;99306.78;6245648;28;20057;-75
2023/03/12 01:45:45;;;;;;;7.20;0.88;;;;;;;1.83;56.68;99316.06;6246001;28;20053;-70
2023/03/12 01:49:14;;;;;;;1.25;0.77;;;;;;;1.71;58.04;99314.78;6227513;28;20094;-70
2023/03/12 01:52:34;;;;;;;0.28;0.28;;;;;;;1.80;58.60;99315.28;6238249;28;20152;-75
2023/03/12 01:55:35;;;;;;;0.32;0.32;;;;;;;1.79;58.14;99326.47;6245890;28;20125;-75
2023/03/12 01:58:41;;;;;;;0.20;0.20;;;;;;;1.75;59.87;99330.06;6245465;28;20577;-75
2023/03/12 02:01:46;;;;;;;0.65;0.57;;;;;;;1.87;59.80;99341.63;6245883;28;20041;-75
2023/03/12 02:04:47;;;;;;;0.30;0.22;;;;;;;1.70;60.02;99337.09;6245563;28;20045;-75
2023/03/12 02:07:48;;;;;;;0.38;0.38;;;;;;;1.62;59.86;99339.09;6244951;28;20070;-70
2023/03/12 02:10:49;;;;;;;0.60;0.55;;;;;;;1.59;60.42;99341.78;6244677;28;20044;-70
2023/03/12 02:13:50;;;;;;;1.75;0.88;;;;;;;1.58;60.65;99342.66;6244709;28;20049;-70
2023/03/12 02:16:52;;;;;;;0.70;0.70;;;;;;;1.55;61.30;99346.19;6244704;28;20086;-75
2023/03/12 02:20:09;;;;;;;0.40;0.35;;;;;;;1.53;61.79;99354.88;6227790;28;20042;-71
2023/03/12 02:23:56;;;;;;;0.20;0.20;;;;;;;1.48;61.03;99357.56;6245152;28;20116;-75
2023/03/12 02:26:58;;;;;;;0.40;0.40;;;;;;;1.38;60.83;99367.34;6129209;29;20097;-71
2023/03/12 02:30:00;;;;;;;3.00;0.53;;;;;;;1.48;60.72;99369.59;6145152;29;20047;-70
2023/03/12 02:33:05;;;;;;;0.60;0.60;;;;;;;1.38;60.20;99369.06;6244726;28;20169;-70
2023/03/12 02:36:08;;;;;;;0.70;0.70;;;;;;;1.36;61.19;99368.28;6244994;28;20048;-75
2023/03/12 02:39:11;;;;;;;0.80;0.60;;;;;;;1.33;61.61;99370.97;6227185;28;20053;-70
2023/03/12 02:42:13;;;;;;;0.45;0.40;;;;;;;1.32;61.91;99374.41;6244152;28;20042;-70
2023/03/12 02:45:14;;;;;;;1.65;0.77;;;;;;;1.28;60.88;99385.72;6244425;28;20139;-75
2023/03/12 02:48:15;;;;;;;1.25;0.63;;;;;;;1.38;60.46;99392.19;6243962;28;20090;-70
2023/03/12 02:51:16;;;;;;;1.23;0.60;;;;;;;1.48;59.76;99388.44;6244361;28;20481;-75
2023/03/12 02:54:19;;;;;;;1.27;0.80;;;;;;;1.66;60.55;99391.28;6226505;28;20129;-70
2023/03/12 02:57:22;;;;;;;0.30;0.30;;;;;;;1.71;61.07;99394.50;6226682;28;20047;-75
2023/03/12 03:00:24;;;;;;;0.55;0.40;;;;;;;1.59;59.94;99413.78;6244815;28;20047;-75
2023/03/12 03:03:24;;;;;;;0.50;0.50;;;;;;;1.57;59.37;99413.00;6226518;28;20045;-71
2023/03/12 03:06:25;;;;;;;0.35;0.32;;;;;;;1.68;59.21;99415.19;6226194;28;20045;-70
2023/03/12 03:09:30;;;;;;;0.55;0.55;;;;;;;1.56;59.05;99425.00;6226402;28;20045;-71
2023/03/12 03:12:32;;;;;;;0.77;0.75;;;;;;;1.59;61.87;99426.66;6226126;28;20457;-71
2023/03/12 03:15:33;;;;;;;2.03;0.50;;;;;;;1.62;60.69;99441.97;6226390;28;20125;-75
2023/03/12 03:18:34;;;;;;;0.88;0.68;;;;;;;1.50;60.92;99427.78;6226059;28;20045;-70
2023/03/12 03:21:35;;;;;;;0.82;0.82;;;;;;;1.52;61.45;99440.59;6226096;28;20045;-75
2023/03/12 03:24:35;;;;;;;3.60;0.60;;;;;;;1.45;60.64;99441.69;6226845;28;20124;-75
2023/03/12 03:27:36;;;;;;;0.50;0.50;;;;;;;1.40;62.47;99441.84;6244192;28;20120;-75
2023/03/12 03:30:37;;;;;;;1.60;1.20;;;;;;;1.28;63.44;99455.13;6225820;28;20042;-70
2023/03/12 03:33:39;;;;;;;5.47;1.98;;;;;;;1.15;63.66;99452.94;6225837;28;20040;-75
2023/03/12 03:36:39;;;;;;;6.63;2.72;;;;;;;0.97;63.47;99450.97;6243583;28;20113;-75
2023/03/12 03:39:40;;;;;;;5.82;3.42;;;;;;;0.84;64.47;99454.78;6226479;28;20049;-75
2023/03/12 03:42:41;;;;;;;3.88;2.20;;;;;;;0.63;65.12;99449.41;6244087;28;20041;-75
2023/03/12 03:45:43;;;;;;;1.75;1.13;;;;;;;0.55;65.69;99459.88;6226498;28;20048;-75
2023/03/12 03:48:44;;;;;;;;;;;;;;;0.42;66.08;99463.72;6226486;28;20413;-74
2023/03/12 03:51:45;;;;;;;1.70;1.17;;;;;;;0.36;66.12;99462.16;6243832;28;19928;-70
2023/03/12 03:54:52;;;;;;;2.78;1.52;;;;;;;0.32;67.69;99467.44;6225962;28;20037;-75
2023/03/12 03:57:53;;;;;;;1.17;1.08;;;;;;;0.29;67.62;99465.81;6226090;28;20258;-71
2023/03/12 04:00:57;;;;;;;1.48;1.08;;;;;;;0.27;68.04;99467.56;6243653;28;20153;-75
2023/03/12 04:03:58;;;;;;;2.47;0.88;;;;;;;0.24;68.65;99480.47;6226423;28;20045;-75
2023/03/12 04:07:01;;;;;;;0.45;0.45;;;;;;;0.22;69.82;99477.09;6225883;28;20048;-71
2023/03/12 04:10:03;;;;;;;0.80;0.80;;;;;;;0.13;69.99;99485.91;6243352;28;20065;-75
2023/03/12 04:13:04;;;;;;;1.17;1.02;;;;;;;0.02;70.27;99472.50;6226124;28;20101;-70
2023/03/12 04:16:06;;;;;;;0.60;0.60;;;;;;;0.00;70.79;99487.13;6225237;28;20037;-70
2023/03/12 04:19:07;;;;;;;3.75;0.95;;;;;;;-0.04;70.28;99482.97;6225415;28;20045;-70
2023/03/12 04:22:07;;;;;;;0.75;0.68;;;;;;;-0.06;71.53;99480.44;6242370;28;20493;-70
2023/03/12 04:25:08;;;;;;;0.65;0.65;;;;;;;-0.04;71.69;99486.38;6243086;28;20049;-75
2023/03/12 04:28:09;;;;;;;0.70;0.40;;;;;;;-0.16;71.42;99496.13;6242683;28;20045;-75
2023/03/12 04:31:11;;;;;;;1.38;0.80;;;;;;;-0.30;72.62;99510.13;6226023;28;20050;-75
2023/03/12 04:34:12;;;;;;;3.50;0.85;;;;;;;-0.23;72.75;99508.22;6227510;28;20040;-70
2023/03/12 04:37:13;;;;;;;0.40;0.40;;;;;;;-0.28;73.03;99522.91;6229951;28;20428;-70
2023/03/12 04:40:14;;;;;;;0.50;0.50;;;;;;;-0.29;72.28;99532.31;6229015;28;20420;-75
2023/03/12 04:43:18;;;;;;;0.98;0.93;;;;;;;-0.38;73.91;99532.53;6229686;28;20049;-70
2023/03/12 04:46:19;;;;;;;0.70;0.55;;;;;;;-0.45;75.06;99536.97;6229316;28;20045;-75
2023/03/12 04:49:20;;;;;;;0.63;0.63;;;;;;;-0.46;76.57;99550.66;6246752;28;20061;-71
2023/03/12 04:52:21;;;;;;;0.50;0.50;;;;;;;-0.45;76.34;99557.47;6246305;28;20045;-71
2023/03/12 04:55:22;;;;;;;2.05;1.23;;;;;;;-0.35;74.81;99554.69;6229067;28;20046;-70
2023/03/12 04:58:23;;;;;;;0.70;0.63;;;;;;;-0.39;74.38;99553.94;6228488;28;20132;-70
2023/03/12 05:01:32;;;;;;;0.82;0.82;;;;;;;-0.49;75.04;99565.28;6246111;28;20045;-70
2023/03/12 05:04:33;;;;;;;0.68;0.43;;;;;;;-0.49;75.98;99570.41;6247134;28;20038;-75
2023/03/12 05:07:33;;;;;;;1.95;1.05;;;;;;;-0.46;77.16;99578.00;6228485;28;20076;-70
2023/03/12 05:10:34;;;;;;;2.97;1.98;;;;;;;-0.55;76.02;99584.19;6245798;28;20041;-70
2023/03/12 05:13:35;;;;;;;5.82;2.05;;;;;;;-0.54;75.65;99578.19;6246025;28;20049;-75
2023/03/12 05:16:36;;;;;;;4.68;2.33;;;;;;;-0.55;76.18;99585.94;6229053;28;20041;-75
2023/03/12 05:19:37;;;;;;;3.28;2.15;;;;;;;-0.51;74.29;99593.50;6229205;28;20069;-75
2023/03/12 05:22:38;;;;;;;2.95;1.42;;;;;;;-0.43;74.08;99601.03;6229209;28;20042;-75
2023/03/12 05:25:40;;;;;;;12.23;2.65;;;;;;;-0.33;73.28;99611.88;6246566;28;20405;-74
2023/03/12 05:28:41;;;;;;;4.43;2.08;;;;;;;-0.28;72.82;99607.50;6228043;28;20037;-74
2023/03/12 05:31:42;;;;;;;3.83;1.85;;;;;;;-0.23;72.22;99611.66;6246137;28;20044;-70
2023/03/12 05:34:43;;;;;;;0.75;0.75;;;;;;;-0.17;72.35;99618.34;6245447;28;20041;-70
2023/03/12 05:37:43;;;;;;;2.40;1.58;;;;;;;-0.03;71.35;99631.66;6245765;28;20186;-70
2023/03/12 05:40:56;;;;;;;2.13;1.55;;;;;;;0.14;72.52;99646.63;6245357;28;20129;-74
2023/03/12 05:43:57;;;;;;;1.98;1.52;;;;;;;0.23;73.03;99660.13;6244190;28;20042;-70
2023/03/12 05:46:58;;;;;;;5.80;1.60;;;;;;;0.29;70.06;99663.41;6243893;28;20052;-70
2023/03/12 05:49:59;;;;;;;1.08;0.80;;;;;;;0.52;68.42;99657.66;6243755;28;20124;-70
2023/03/12 05:53:00;;;;;;;11.38;0.52;;;;;;;0.67;66.42;99671.81;6226325;28;20413;-75
2023/03/12 05:56:06;;;;;;;1.02;0.88;;;;;;;0.93;64.63;99667.72;6226639;28;20048;-70
2023/03/12 05:59:09;;;;;;;0.52;0.52;;;;;;;0.87;61.15;99678.16;6244672;28;20049;-74
2023/03/12 06:02:10;;;;;;;1.77;1.10;;;;;;;1.17;63.74;99695.31;6245153;28;20056;-74
2023/03/12 06:05:11;;;;;;;0.70;0.57;;;;;;;1.20;61.59;99695.22;6227270;28;20045;-75
2023/03/12 06:08:12;;;;;;;0.95;0.68;;;;;;;1.37;61.99;99704.16;6244286;28;20045;-72
2023/03/12 06:11:13;;;;;;;1.02;0.90;;;;;;;1.53;61.28;99717.44;6226615;28;20042;-75
2023/03/12 06:14:14;;;;;;;0.88;0.85;;;;;;;1.40;59.47;99719.50;6244335;28;20409;-71
2023/03/12 06:17:15;;;;;;;0.60;0.60;;;;;;;1.57;59.35;99727.56;6225661;28;20120;-71
2023/03/12 06:20:16;;;;;;;2.05;0.88;;;;;;;1.54;61.24;99735.34;6243321;28;20037;-71
2023/03/12 06:23:16;;;;;;;3.08;1.15;;;;;;;1.64;59.99;99735.94;6244184;28;20482;-75
2023/03/12 06:26:21;;;;;;;2.78;1.80;;;;;;;1.53;60.93;99754.25;6243541;28;20052;-70
2023/03/12 06:29:21;;;;;;;20.38;1.58;;;;;;;1.76;60.74;99745.88;6243113;28;20049;-71
2023/03/12 06:32:22;;;;;;;1.67;1.30;;;;;;;1.95;59.63;99738.44;6243270;28;20409;-71
2023/03/12 06:35:23;;;;;;;2.97;1.48;;;;;;;2.06;58.90;99735.56;6243619;28;20103;-71
2023/03/12 06:38:25;;;;;;;0.70;0.68;;;;;;;2.00;60.13;99746.03;6243067;28;20041;-71
2023/03/12 06:42:28;;;;;;;1.42;0.60;;;;;;;2.10;59.13;99757.72;6318507;27;20374;-71
2023/03/12 06:45:29;;;;;;;0.63;0.63;;;;;;;2.38;59.33;99756.84;6350322;28;20044;-71
2023/03/12 06:48:40;;;;;;;4.13;1.20;;;;;;;2.36;58.15;99763.78;6318797;28;20487;-75
2023/03/12 06:51:40;;;;;;;1.42;0.77;;;;;;;2.42;55.29;99763.59;6318504;28;20043;-75
2023/03/12 06:54:41;;;;;;;1.08;0.70;;;;;;;2.41;57.12;99762.75;6317487;28;20048;-75
2023/03/12 06:57:44;;;;;;;2.08;1.73;;;;;;;2.39;56.48;99774.81;6317324;28;20047;-75
2023/03/12 07:00:45;;;;;;;1.25;0.85;;;;;;;2.49;57.35;99774.53;6317100;28;20079;-75
2023/03/12 07:03:46;;;;;;;2.05;1.20;;;;;;;2.48;56.17;99780.56;6317223;28;20040;-75
2023/03/12 07:06:49;;;;;;;1.73;0.80;;;;;;;2.65;54.67;99783.44;6317156;28;20041;-76
2023/03/12 07:09:52;;;;;;;0.50;0.50;;;;;;;2.89;54.19;99793.84;6316976;28;20502;-76
2023/03/12 07:12:57;;;;;;;2.50;0.88;;;;;;;3.02;54.75;99801.09;6317331;28;20044;-71
2023/03/12 07:15:58;;;;;;;2.53;1.10;;;;;;;3.21;54.15;99803.03;6317101;28;20067;-71
2023/03/12 07:19:02;;;;;;;0.95;0.70;;;;;;;3.27;53.21;99804.56;6316794;28;20044;-76
2023/03/12 07:22:03;;;;;;;2.10;1.13;;;;;;;3.09;51.94;99808.59;6317811;28;20536;-76
2023/03/12 07:25:04;;;;;;;0.90;0.68;;;;;;;3.33;53.27;99814.66;6316634;28;20044;-75
2023/03/12 07:28:06;;;;;;;11.68;0.85;;;;;;;3.33;54.06;99820.66;6316553;28;20402;-76
2023/03/12 07:31:07;;;;;;;0.87;0.70;;;;;;;3.62;53.48;99817.06;6316362;28;20050;-76
2023/03/12 07:34:07;;;;;;;0.57;0.57;;;;;;;3.68;52.48;99817.72;6317512;28;20036;-76
2023/03/12 07:37:08;;;;;;;0.90;0.77;;;;;;;3.47;52.39;99825.34;6316012;28;20410;-71
2023/03/12 07:40:10;;;;;;;0.43;0.43;;;;;;;3.65;53.68;99825.59;6314985;28;20056;-76
2023/03/12 07:43:11;;;;;;;4.47;0.80;;;;;;;3.68;52.69;99821.13;6315696;28;20051;-71
2023/03/12 07:46:12;;;;;;;1.33;1.10;;;;;;;3.86;52.75;99823.97;6316464;28;20097;-72
2023/03/12 07:49:13;;;;;;;3.03;0.90;;;;;;;4.05;51.45;99830.09;6315337;28;20036;-76
2023/03/12 07:52:14;;;;;;;1.48;1.38;;;;;;;4.37;50.86;99822.88;6309146;28;20056;-76
2023/03/12 07:55:15;;;;;;;1.10;1.00;;;;;;;4.64;50.09;99826.94;6300300;28;20044;-75
2023/03/12 07:58:16;;;;;;;0.65;0.65;;;;;;;4.41;48.33;99829.63;6299995;28;20090;-72
2023/03/12 08:01:17;;;;;;;1.20;1.10;;;;;;;4.16;49.17;99833.13;6297633;28;20036;-71
2023/03/12 08:04:20;;;;;;;2.90;1.17;;;;;;;4.39;47.03;99821.91;6299440;28;20044;-76
2023/03/12 08:07:20;;;;;;;0.70;0.70;;;;;;;4.10;46.80;99824.75;6299792;28;20479;-76
2023/03/12 08:10:22;;;;;;;1.00;0.60;;;;;;;4.22;46.28;99832.91;6297748;28;20047;-71
2023/03/12 08:13:23;;;;;;;2.17;1.25;;;;;;;4.74;46.54;99835.19;6299297;28;20036;-76
2023/03/12 08:16:24;;;;;;;0.98;0.88;;;;;;;4.92;47.09;99832.72;6299190;28;20047;-72
2023/03/12 08:19:25;;;;;;;1.67;0.95;;;;;;;4.94;45.32;99847.31;6299549;28;20036;-76
2023/03/12 08:22:26;;;;;;;1.38;1.05;;;;;;;5.13;47.49;99839.63;6297357;28;20048;-71
2023/03/12 08:25:27;;;;;;;1.73;1.02;;;;;;;5.32;46.99;99851.78;6299328;28;20045;-76
2023/03/12 08:28:28;;;;;;;1.80;1.08;;;;;;;5.10;46.91;99849.25;6297389;28;20037;-71
2023/03/12 08:31:29;;;;;;;0.50;0.50;;;;;;;5.07;44.54;99849.38;6297133;28;20094;-71
2023/03/12 08:34:30;;;;;;;1.38;1.08;;;;;;;5.31;46.82;99856.09;6298349;28;20045;-71
2023/03/12 08:37:31;;;;;;;2.58;1.02;;;;;;;5.31;47.24;99860.41;6298661;28;20079;-71
2023/03/12 08:40:33;;;;;;;1.20;0.95;;;;;;;5.60;44.99;99864.34;6296620;28;20049;-71
2023/03/12 08:43:34;;;;;;;1.80;1.25;;;;;;;5.86;45.83;99865.78;6298852;28;20051;-76
2023/03/12 08:46:35;;;;;;;2.08;1.17;;;;;;;5.61;46.00;99866.88;6298390;28;20528;-76
2023/03/12 08:49:36;;;;;;;2.60;1.65;;;;;;;5.68;45.99;99867.44;6297108;28;20045;-76
2023/03/12 08:52:38;;;;;;;2.13;1.17;;;;;;;5.83;44.61;99874.56;6297585;28;20051;-76
2023/03/12 08:55:39;;;;;;;1.13;1.02;;;;;;;5.76;46.12;99874.88;6298230;28;20032;-76
2023/03/12 08:58:39;;;;;;;2.05;1.02;;;;;;;5.91;45.80;99863.00;6296798;28;20047;-72
2023/03/12 09:01:40;;;;;;;3.47;1.02;;;;;;;6.07;46.00;99883.91;6297848;28;20045;-76
2023/03/12 09:04:41;;;;;;;1.00;0.90;;;;;;;6.18;46.79;99881.69;6297501;28;20119;-71
2023/03/12 09:07:41;;;;;;;1.25;0.68;;;;;;;6.10;45.17;99886.38;6298216;28;20051;-76
2023/03/12 09:10:48;;;;;;;1.08;0.85;;;;;;;5.91;45.40;99887.16;6297483;28;20537;-71
2023/03/12 09:13:49;;;;;;;0.63;0.63;;;;;;;6.39;46.00;99888.47;6297295;28;20437;-72
2023/03/12 09:16:50;;;;;;;3.95;1.35;;;;;;;5.97;45.75;99893.81;6296180;28;20094;-72
2023/03/12 09:19:51;;;;;;;1.25;1.05;;;;;;;6.37;45.04;99903.25;6295864;28;20041;-71
2023/03/12 09:22:52;;;;;;;2.60;1.63;;;;;;;5.87;45.30;99906.34;6295891;28;20045;-71
2023/03/12 09:25:53;;;;;;;1.33;1.20;;;;;;;6.31;46.30;99908.69;6296986;28;20089;-76
2023/03/12 09:28:55;;;;;;;3.03;1.67;;;;;;;6.91;46.82;99890.34;6295778;28;20498;-71
2023/03/12 09:31:57;;;;;;;3.10;1.17;;;;;;;7.15;43.97;99892.66;6296804;28;20048;-71
2023/03/12 09:34:58;;;;;;;1.43;1.10;;;;;;;6.39;44.68;99906.59;6296525;28;20040;-76
2023/03/12 09:37:58;;;;;;;0.88;0.85;;;;;;;6.78;44.97;99900.47;6296687;28;20067;-76
2023/03/12 09:41:00;;;;;;;3.03;1.23;;;;;;;7.09;45.57;99896.38;6297025;28;20052;-71
2023/03/12 09:44:06;;;;;;;1.27;1.10;;;;;;;6.98;44.08;99907.28;6296600;28;20048;-71
2023/03/12 09:47:29;;;;;;;1.20;1.00;;;;;;;7.53;42.93;99908.88;6296956;28;20036;-77
2023/03/12 09:50:38;;;;;;;1.52;1.20;;;;;;;7.62;44.38;99907.59;6296569;28;20056;-71
2023/03/12 09:53:47;;;;;;;0.85;0.85;;;;;;;7.74;43.09;99914.78;6297253;28;20049;-76
2023/03/12 09:56:51;;;;;;;3.75;2.20;;;;;;;7.64;42.95;99906.59;6300085;28;20119;-71
2023/03/12 09:59:52;;;;;;;0.65;0.65;;;;;;;7.42;43.75;99906.00;6296736;28;20112;-71
2023/03/12 10:03:11;;;;;;;16.30;1.60;;;;;;;7.50;43.01;99911.66;6297467;28;20486;-76
2023/03/12 10:06:22;;;;;;;1.60;1.10;;;;;;;7.95;42.05;99911.94;6298337;28;20060;-77
2023/03/12 10:09:38;;;;;;;0.70;0.70;;;;;;;7.12;43.99;99909.19;6298027;28;20048;-71
2023/03/12 10:12:59;;;;;;;3.95;1.38;;;;;;;6.96;45.02;99919.50;6294818;28;20041;-77
2023/03/12 10:16:29;;;;;;;3.78;1.55;;;;;;;7.71;43.29;99916.69;6298321;28;20487;-76
2023/03/12 10:19:53;;;;;;;0.93;0.82;;;;;;;7.66;43.72;99919.53;6290843;28;20483;-77
2023/03/12 10:23:24;;;;;;;1.15;0.90;;;;;;;8.25;43.35;99917.28;6296655;28;20123;-77
2023/03/12 10:26:34;;;;;;;1.65;1.15;;;;;;;7.83;43.93;99918.66;6299153;28;20123;-76
2023/03/12 10:29:39;;;;;;;1.95;1.20;;;;;;;7.66;43.25;99911.72;6296523;28;20051;-76
2023/03/12 10:32:45;;;;;;;0.88;0.70;;;;;;;7.43;43.62;99916.31;6296693;28;20071;-77
2023/03/12 10:35:47;;;;;;;1.83;1.25;;;;;;;8.06;41.76;99913.06;6296817;28;20047;-77
2023/03/12 10:38:48;;;;;;;1.90;1.10;;;;;;;8.52;43.48;99911.56;6296429;28;20067;-72
2023/03/12 10:41:49;;;;;;;1.52;1.10;;;;;;;8.16;43.41;99923.00;6295505;28;20131;-77
2023/03/12 10:44:58;;;;;;;0.90;0.80;;;;;;;7.33;44.91;99917.69;6297808;28;20039;-77
2023/03/12 10:48:06;;;;;;;1.83;1.00;;;;;;;7.88;43.93;99914.88;6297300;28;20040;-77
2023/03/12 10:51:11;;;;;;;1.55;1.10;;;;;;;7.27;43.38;99912.81;6297492;28;20049;-77
2023/03/12 10:54:28;;;;;;;1.65;1.23;;;;;;;7.74;43.92;99911.31;6296075;28;20044;-77
2023/03/12 10:57:39;;;;;;;1.00;0.80;;;;;;;8.40;44.75;99916.47;6296623;28;20039;-77
2023/03/12 11:00:40;;;;;;;2.05;1.38;;;;;;;8.60;43.91;99911.97;6299473;28;20047;-76
2023/03/12 11:03:42;;;;;;;2.78;1.60;;;;;;;8.69;44.63;99911.47;6296189;28;20048;-77
2023/03/12 11:07:01;;;;;;;;;;;;;;;7.87;47.27;99907.19;6296933;28;20110;-72
2023/03/12 11:10:13;;;;;;;0.93;0.82;;;;;;;8.50;44.13;99911.63;6295503;28;20061;-72
2023/03/12 11:13:24;;;;;;;2.67;1.48;;;;;;;8.99;45.27;99897.66;6295241;28;20044;-71
2023/03/12 11:16:27;;;;;;;0.98;0.93;;;;;;;9.16;42.78;99902.75;6294259;28;20072;-71
2023/03/12 11:19:32;;;;;;;1.90;1.17;;;;;;;9.48;43.83;99889.63;6295228;28;20410;-71
2023/03/12 11:22:34;;;;;;;1.38;1.00;;;;;;;9.63;43.00;99893.91;6295242;28;20047;-71
2023/03/12 11:25:34;;;;;;;1.80;1.05;;;;;;;9.40;42.05;99895.28;6294025;28;20036;-72
2023/03/12 11:28:41;;;;;;;4.28;1.17;;;;;;;9.95;41.29;99891.13;6302733;28;20096;-77
2023/03/12 11:32:13;;;;;;;2.72;1.25;;;;;;;9.78;43.93;99897.38;6302582;28;20491;-77
2023/03/12 11:35:16;;;;;;;2.03;1.25;;;;;;;9.62;42.13;99889.63;6296544;28;20605;-71
2023/03/12 11:38:25;;;;;;;1.23;0.88;;;;;;;9.27;43.40;99902.97;6298466;28;20062;-71
2023/03/12 11:41:49;;;;;;;2.55;1.05;;;;;;;9.06;41.87;99896.41;6302250;28;20048;-71
2023/03/12 11:45:25;;;;;;;2.72;1.13;;;;;;;8.61;42.68;99895.47;6300529;28;20544;-77
2023/03/12 11:48:32;;;;;;;2.20;1.50;;;;;;;8.42;41.70;99900.81;6304369;28;20040;-77
2023/03/12 11:51:42;;;;;;;1.73;1.15;;;;;;;8.65;42.21;99892.59;6304402;28;20040;-71
2023/03/12 11:55:01;;;;;;;6.30;1.50;;;;;;;9.21;44.82;99900.72;6299993;28;20044;-77
2023/03/12 11:58:23;;;;;;;1.50;1.02;;;;;;;9.71;42.72;99900.44;6299802;28;20041;-71
2023/03/12 12:02:01;;;;;;;2.03;1.05;;;;;;;10.09;42.32;99898.97;6299184;28;20088;-71
2023/03/12 12:05:36;;;;;;;1.30;1.05;;;;;;;10.17;41.59;99895.88;6302853;28;20040;-77
2023/03/12 12:09:14;;;;;;;2.88;1.30;;;;;;;10.15;43.60;99895.16;6300611;28;20112;-77
2023/03/12 12:12:39;;;;;;;2.22;1.23;;;;;;;10.15;39.61;99902.09;6299070;28;20059;-71
2023/03/12 12:15:57;;;;;;;1.65;1.35;;;;;;;10.21;40.99;99905.19;6297405;28;20174;-72
2023/03/12 12:18:57;;;;;;;1.85;1.10;;;;;;;10.47;38.76;99903.56;6306098;28;20040;-77
2023/03/12 12:22:16;;;;;;;3.15;1.08;;;;;;;9.77;39.65;99910.50;6307545;28;20040;-77
2023/03/12 12:25:45;;;;;;;0.70;0.70;;;;;;;9.75;38.62;99905.38;6303723;28;20040;-72
2023/03/12 12:29:13;;;;;;;0.93;0.70;;;;;;;9.99;39.44;99905.66;6298490;28;20415;-72
2023/03/12 12:32:46;;;;;;;0.85;0.80;;;;;;;9.96;37.61;99910.22;6301113;28;20052;-72
2023/03/12 12:35:47;;;;;;;2.05;1.00;;;;;;;9.92;40.50;99900.91;6289667;28;20059;-77
2023/03/12 12:39:25;;;;;;;0.82;0.82;;;;;;;9.64;38.87;99905.19;6300359;28;20048;-71
2023/03/12 12:42:31;;;;;;;1.55;1.20;;;;;;;9.59;39.47;99908.03;6298817;28;20449;-71
2023/03/12 12:45:41;;;;;;;1.10;0.90;;;;;;;9.49;39.69;99904.28;6300125;28;20452;-71
2023/03/12 12:48:48;;;;;;;0.65;0.52;;;;;;;9.24;38.88;99910.94;6300243;28;20072;-76
2023/03/12 12:51:56;;;;;;;1.33;0.90;;;;;;;9.12;40.23;99918.63;6302542;28;20157;-72
2023/03/12 12:55:00;;;;;;;1.90;0.80;;;;;;;9.53;38.54;99918.00;6299523;28;20463;-76
2023/03/12 12:58:12;;;;;;;2.88;1.52;;;;;;;9.53;40.20;99913.59;6301742;28;20041;-77
2023/03/12 13:01:15;;;;;;;0.60;0.60;;;;;;;9.48;40.46;99918.25;6298464;28;20517;-71
2023/03/12 13:04:29;;;;;;;1.80;1.33;;;;;;;9.55;40.67;99913.53;6297566;28;20060;-72
2023/03/12 13:07:33;;;;;;;1.23;0.82;;;;;;;9.51;40.11;99914.63;6296367;28;20060;-71
2023/03/12 13:10:33;;;;;;;1.17;1.00;;;;;;;9.60;39.09;99908.91;6300140;28;20127;-77
2023/03/12 13:13:34;;;;;;;3.35;0.63;;;;;;;9.54;39.07;99923.13;6301893;28;20043;-76
2023/03/12 13:16:36;;;;;;;0.82;0.80;;;;;;;9.79;39.97;99922.50;6304898;28;20062;-76
2023/03/12 13:19:43;;;;;;;1.98;1.35;;;;;;;9.61;38.21;99911.38;6303752;28;20036;-71
2023/03/12 13:23:10;;;;;;;1.60;1.20;;;;;;;9.54;39.04;99914.47;6297781;28;20041;-77
2023/03/12 13:26:26;;;;;;;0.95;0.70;;;;;;;8.90;41.67;99919.84;6293240;28;20056;-76
2023/03/12 13:29:32;;;;;;;1.70;1.20;;;;;;;8.45;41.71;99917.09;6300236;28;20040;-71
2023/03/12 13:32:33;;;;;;;1.08;0.98;;;;;;;8.58;41.81;99929.41;6299279;28;20045;-77
2023/03/12 13:35:38;;;;;;;1.35;0.70;;;;;;;9.03;41.72;99915.59;6301349;28;20063;-77
2023/03/12 13:38:59;;;;;;;2.47;1.40;;;;;;;8.90;42.43;99934.63;6300723;28;20052;-71
2023/03/12 13:42:21;;;;;;;3.25;1.15;;;;;;;9.26;41.01;99929.91;6295281;28;20411;-71
2023/03/12 13:45:25;;;;;;;3.83;1.90;;;;;;;9.46;40.37;99923.56;6296120;28;20115;-77
2023/03/12 13:48:29;;;;;;;4.32;1.38;;;;;;;9.26;40.61;99937.72;6295848;28;20040;-71
2023/03/12 13:51:31;;;;;;;1.45;1.30;;;;;;;9.12;40.91;99935.09;6296336;28;20040;-71
2023/03/12 13:54:34;;;;;;;3.78;2.83;;;;;;;8.92;41.06;99936.22;6295176;28;20048;-71
2023/03/12 13:57:48;;;;;;;1.77;1.38;;;;;;;8.74;40.38;99938.06;6298745;28;20395;-76
2023/03/12 14:00:49;;;;;;;1.10;0.90;;;;;;;8.98;41.17;99930.66;6297209;28;20119;-77
2023/03/12 14:03:54;;;;;;;1.25;1.13;;;;;;;8.95;41.84;99943.00;6299730;28;20043;-77
2023/03/12 14:07:13;;;;;;;1.75;1.33;;;;;;;8.93;40.24;99945.69;6296736;28;20044;-71
2023/03/12 14:10:55;;;;;;;6.28;2.97;;;;;;;8.87;41.80;99946.88;6297581;28;20041;-71
2023/03/12 14:14:29;;;;;;;2.50;1.65;;;;;;;8.54;40.39;99946.94;6297519;28;20131;-71
2023/03/12 14:17:33;;;;;;;6.00;1.17;;;;;;;8.62;40.19;99949.13;6297255;28;20131;-72
2023/03/12 14:20:37;;;;;;;2.20;1.08;;;;;;;8.88;41.41;99951.16;6295942;28;20361;-72
2023/03/12 14:23:45;;;;;;;4.38;1.58;;;;;;;9.14;41.73;99935.00;6295274;28;20045;-77
2023/03/12 14:26:46;;;;;;;2.83;1.27;;;;;;;9.37;40.67;99944.94;6296173;28;20047;-71
2023/03/12 14:29:55;;;;;;;2.70;1.00;;;;;;;8.68;40.18;99957.44;6296654;28;20476;-71
2023/03/12 14:32:58;;;;;;;3.05;1.30;;;;;;;8.33;40.34;99950.69;6296694;28;20047;-71
2023/03/12 14:36:08;;;;;;;;;;;;;;;8.64;39.57;99948.13;6297528;28;20098;-77
2023/03/12 14:39:31;;;;;;;1.80;1.08;;;;;;;8.26;41.86;99943.22;6296938;28;19947;-71
2023/03/12 14:42:33;;;;;;;;;;;;;;;8.31;42.04;99944.72;6296106;28;20060;-77
2023/03/12 14:45:38;;;;;;;1.20;1.10;;;;;;;8.48;42.33;99944.69;6296557;28;20363;-77